Time;durP1;ratioP1;P1;durP2;ratioP2;P2;SDS_P1;SDS_P2;PMS_P1;PMS_P2;Temp;Humidity;BMP_temperature;BMP_pressure;BME280_temperature;BME280_humidity;BME280_pressure;Samples;Min_cycle;Max_cycle;Signal;HPM_P1;HPM_P2
2023/10/02 00:02:06;;;;;;;15.05;9.45;;;16.20;99.90;;;;;;5103887;28;20077;-68
2023/10/02 00:04:34;;;;;;;13.70;9.73;;;16.20;99.90;;;;;;5101632;27;20126;-68
2023/10/02 00:07:06;;;;;;;18.38;9.52;;;16.20;99.90;;;;;;5135325;27;20039;-68
2023/10/02 00:09:42;;;;;;;12.73;9.05;;;16.10;99.90;;;;;;5103949;27;20043;-68
2023/10/02 00:12:11;;;;;;;18.35;9.85;;;16.00;99.90;;;;;;5101498;28;20138;-68
2023/10/02 00:14:38;;;;;;;13.00;8.88;;;16.10;99.90;;;;;;5088260;28;20036;-68
2023/10/02 00:17:08;;;;;;;13.27;8.63;;;16.00;99.90;;;;;;5105150;27;20500;-68
2023/10/02 00:19:38;;;;;;;13.85;8.57;;;16.00;99.90;;;;;;5104159;28;20671;-68
2023/10/02 00:24:57;;;;;;;13.52;8.52;;;15.90;99.90;;;;;;5105953;28;20465;-68
2023/10/02 00:27:24;;;;;;;16.00;9.50;;;16.00;99.90;;;;;;5087886;27;20040;-68
2023/10/02 00:29:57;;;;;;;14.60;10.13;;;16.00;99.90;;;;;;5103983;27;20027;-68
2023/10/02 00:32:29;;;;;;;15.60;9.77;;;16.00;99.90;;;;;;5104271;28;20859;-68
2023/10/02 00:34:55;;;;;;;13.82;9.73;;;16.00;99.90;;;;;;5106288;28;20043;-68
2023/10/02 00:37:21;;;;;;;14.15;9.55;;;16.00;99.90;;;;;;5099080;27;20032;-68
2023/10/02 00:39:52;;;;;;;14.75;9.48;;;16.00;99.90;;;;;;5099784;28;20040;-68
2023/10/02 00:45:02;;;;;;;16.35;9.38;;;16.10;99.90;;;;;;5102232;27;20101;-68
2023/10/02 00:47:42;;;;;;;16.63;11.07;;;16.10;99.90;;;;;;5134100;27;20032;-68
2023/10/02 00:50:18;;;;;;;16.40;11.02;;;16.10;99.90;;;;;;5100199;28;20067;-68
2023/10/02 00:53:03;;;;;;;17.45;11.80;;;16.10;99.90;;;;;;5101599;28;20071;-68
2023/10/02 00:55:35;;;;;;;17.98;10.88;;;16.20;99.90;;;;;;5102755;27;20067;-68
2023/10/02 00:58:03;;;;;;;14.55;9.73;;;16.20;99.90;;;;;;5102041;28;20338;-68
2023/10/02 01:00:36;;;;;;;15.98;10.73;;;16.30;99.90;;;;;;5134498;27;20074;-68
2023/10/02 01:03:09;;;;;;;18.45;10.95;;;16.30;99.90;;;;;;5102223;28;20039;-68
2023/10/02 01:05:47;;;;;;;19.35;11.88;;;16.30;99.90;;;;;;5101725;27;20083;-69
2023/10/02 01:08:23;;;;;;;16.45;10.40;;;16.30;99.90;;;;;;5101082;28;20035;-68
2023/10/02 01:10:57;;;;;;;15.43;10.40;;;16.30;99.90;;;;;;5103146;28;20039;-68
2023/10/02 01:13:32;;;;;;;18.65;12.32;;;16.40;99.90;;;;;;5114343;27;20055;-68
2023/10/02 01:16:08;;;;;;;15.93;10.70;;;16.40;99.90;;;;;;5099418;28;20039;-68
2023/10/02 01:18:40;;;;;;;17.58;11.13;;;16.40;99.90;;;;;;5099255;28;20078;-68
2023/10/02 01:21:11;;;;;;;19.63;12.07;;;16.50;99.90;;;;;;5132696;27;20048;-68
2023/10/02 01:24:10;;;;;;;18.95;12.07;;;16.50;99.90;;;;;;5118318;27;20118;-68
2023/10/02 01:26:41;;;;;;;15.35;11.43;;;16.50;99.90;;;;;;5102207;28;20170;-68
2023/10/02 01:29:10;;;;;;;16.15;10.52;;;16.50;99.90;;;;;;5100644;28;20469;-68
2023/10/02 01:31:44;;;;;;;14.77;10.40;;;16.50;99.90;;;;;;5102088;28;20043;-68
2023/10/02 01:34:33;;;;;;;15.13;10.77;;;16.50;99.90;;;;;;5106374;28;20044;-68
2023/10/02 01:37:32;;;;;;;17.08;11.25;;;16.50;99.90;;;;;;5102549;28;20044;-68
2023/10/02 01:40:24;;;;;;;22.38;12.18;;;16.50;99.90;;;;;;5108495;28;20047;-68
2023/10/02 01:42:38;;;;;;;16.92;10.77;;;16.40;99.90;;;;;;5106917;27;20074;-68
2023/10/02 01:45:04;;;;;;;20.52;11.98;;;16.50;99.90;;;;;;5135990;27;20044;-68
2023/10/02 01:47:39;;;;;;;19.35;12.75;;;16.50;99.90;;;;;;5107037;27;20032;-68
2023/10/02 01:50:06;;;;;;;20.58;12.70;;;16.50;99.90;;;;;;5107021;27;20500;-68
2023/10/02 01:52:31;;;;;;;18.48;13.63;;;16.60;99.90;;;;;;5108492;28;20058;-68
2023/10/02 01:54:58;;;;;;;17.45;11.93;;;16.60;99.90;;;;;;5104941;28;20039;-68
2023/10/02 01:57:24;;;;;;;18.20;12.48;;;16.60;99.90;;;;;;5105072;28;20067;-68
2023/10/02 01:59:50;;;;;;;21.90;12.07;;;16.60;99.90;;;;;;5103933;27;20035;-68
2023/10/02 02:02:15;;;;;;;18.13;12.32;;;16.70;99.90;;;;;;5106406;27;20070;-68
2023/10/02 02:04:43;;;;;;;21.50;12.68;;;16.70;99.90;;;;;;5106682;27;20050;-68
2023/10/02 02:07:08;;;;;;;19.70;12.73;;;16.70;99.90;;;;;;5104994;27;20035;-68
2023/10/02 02:09:42;;;;;;;17.02;12.57;;;16.70;99.90;;;;;;5101443;27;20047;-68
2023/10/02 02:12:10;;;;;;;21.70;13.07;;;16.70;99.90;;;;;;5103489;28;20054;-68
2023/10/02 02:14:52;;;;;;;20.23;12.23;;;16.70;99.90;;;;;;5105592;27;20028;-68
2023/10/02 02:17:21;;;;;;;20.40;12.98;;;16.70;99.90;;;;;;5106443;27;20112;-68
2023/10/02 02:19:50;;;;;;;20.08;12.88;;;16.80;99.90;;;;;;5103302;28;20035;-68
2023/10/02 02:22:23;;;;;;;22.23;13.32;;;16.80;99.90;;;;;;5104494;28;20081;-68
2023/10/02 02:24:51;;;;;;;18.38;11.77;;;16.80;99.90;;;;;;5102495;27;20084;-68
2023/10/02 02:27:19;;;;;;;22.95;13.32;;;16.70;99.90;;;;;;5105621;27;20150;-68
2023/10/02 02:29:46;;;;;;;21.85;13.15;;;16.80;99.90;;;;;;5106847;27;20036;-68
2023/10/02 02:32:12;;;;;;;21.98;13.45;;;16.80;99.90;;;;;;5103890;27;20084;-68
2023/10/02 02:34:38;;;;;;;21.88;13.93;;;16.80;99.90;;;;;;5101396;27;20478;-68
2023/10/02 02:37:06;;;;;;;35.55;13.85;;;16.80;99.90;;;;;;5106181;28;20039;-68
2023/10/02 02:39:37;;;;;;;22.27;13.82;;;16.80;99.90;;;;;;5102523;28;20054;-68
2023/10/02 02:42:36;;;;;;;23.00;14.10;;;16.80;99.90;;;;;;5105007;27;20596;-68
2023/10/02 02:44:55;;;;;;;24.95;13.80;;;16.80;99.90;;;;;;5103330;27;21405;-68
2023/10/02 02:47:21;;;;;;;20.25;13.18;;;16.80;99.90;;;;;;5102637;27;20040;-68
2023/10/02 02:49:52;;;;;;;22.23;13.02;;;16.80;99.90;;;;;;5135860;27;20485;-68
2023/10/02 02:52:24;;;;;;;19.98;12.35;;;16.80;99.90;;;;;;5104681;28;20035;-68
2023/10/02 02:54:58;;;;;;;19.55;12.65;;;16.80;99.90;;;;;;5117925;27;20044;-68
2023/10/02 02:57:25;;;;;;;20.40;13.02;;;16.80;99.90;;;;;;5134154;27;20050;-68
2023/10/02 03:02:46;;;;;;;24.02;13.23;;;16.80;99.90;;;;;;5135632;27;20490;-68
2023/10/02 03:05:20;;;;;;;18.90;12.80;;;16.80;99.90;;;;;;5104591;27;20047;-68
2023/10/02 03:07:48;;;;;;;22.25;13.98;;;16.80;99.90;;;;;;5137505;27;20465;-68
2023/10/02 03:10:16;;;;;;;20.13;12.57;;;16.80;99.90;;;;;;5135044;27;20047;-68
2023/10/02 03:12:47;;;;;;;21.73;13.55;;;16.70;99.90;;;;;;5105461;28;20075;-68
2023/10/02 03:15:20;;;;;;;22.15;14.57;;;16.70;99.90;;;;;;5106049;27;20054;-68
2023/10/02 03:17:49;;;;;;;22.08;13.68;;;16.70;99.90;;;;;;5104236;27;20050;-68
2023/10/02 03:20:24;;;;;;;20.33;12.80;;;16.70;99.90;;;;;;5133861;27;20137;-68
2023/10/02 03:22:53;;;;;;;23.38;13.73;;;16.80;99.90;;;;;;5102116;27;20055;-68
2023/10/02 03:25:41;;;;;;;21.42;13.15;;;16.70;99.90;;;;;;5104282;28;20128;-68
2023/10/02 03:28:16;;;;;;;20.27;13.23;;;16.70;99.90;;;;;;5135893;27;20039;-68
2023/10/02 03:30:43;;;;;;;21.02;13.57;;;16.70;99.90;;;;;;5104265;27;20047;-68
2023/10/02 03:33:19;;;;;;;23.70;13.32;;;16.70;99.90;;;;;;5099999;27;20126;-68
2023/10/02 03:35:58;;;;;;;20.80;13.63;;;16.70;99.90;;;;;;5105280;27;20070;-68
2023/10/02 03:38:34;;;;;;;21.38;14.25;;;16.60;99.90;;;;;;5134529;27;20054;-68
2023/10/02 03:41:05;;;;;;;18.77;12.77;;;16.60;99.90;;;;;;5136358;27;20035;-68
2023/10/02 03:43:46;;;;;;;21.50;12.85;;;16.60;99.90;;;;;;5090185;28;20157;-68
2023/10/02 03:46:22;;;;;;;19.10;11.70;;;16.50;99.90;;;;;;5105158;27;20043;-68
2023/10/02 03:48:58;;;;;;;17.75;12.77;;;16.50;99.90;;;;;;5103478;28;20035;-68
2023/10/02 03:51:37;;;;;;;18.67;13.25;;;16.50;99.90;;;;;;5101980;28;20032;-68
2023/10/02 03:54:22;;;;;;;20.73;13.63;;;16.50;99.90;;;;;;5089261;27;20470;-68
2023/10/02 03:56:50;;;;;;;21.00;13.05;;;16.40;99.90;;;;;;5102603;28;20043;-68
2023/10/02 03:59:21;;;;;;;20.23;12.93;;;16.40;99.90;;;;;;5101963;27;20059;-68
2023/10/02 04:01:48;;;;;;;19.90;13.25;;;16.40;99.90;;;;;;5134282;27;20050;-68
2023/10/02 04:06:44;;;;;;;19.95;13.63;;;16.30;99.90;;;;;;5101607;27;21136;-68
2023/10/02 04:11:42;;;;;;;24.65;13.73;;;16.30;99.90;;;;;;5104126;28;20096;-68
2023/10/02 04:14:17;;;;;;;20.70;13.05;;;16.30;99.90;;;;;;5117422;27;20039;-67
2023/10/02 04:16:49;;;;;;;19.15;12.85;;;16.30;99.90;;;;;;5101220;28;20544;-68
2023/10/02 04:19:25;;;;;;;21.17;12.90;;;16.30;99.90;;;;;;5101122;27;20084;-68
2023/10/02 04:21:56;;;;;;;20.10;12.18;;;16.30;99.90;;;;;;5099013;27;20044;-68
2023/10/02 04:24:25;;;;;;;21.70;13.77;;;16.30;99.90;;;;;;5099797;28;20486;-68
2023/10/02 04:27:05;;;;;;;18.98;13.40;;;16.30;99.90;;;;;;5103037;28;20538;-68
2023/10/02 04:29:37;;;;;;;18.67;13.45;;;16.20;99.90;;;;;;5103536;27;20162;-68
2023/10/02 04:32:12;;;;;;;23.45;14.43;;;16.30;99.90;;;;;;5102199;27;20043;-68
2023/10/02 04:34:46;;;;;;;23.92;14.40;;;16.20;99.90;;;;;;5106244;27;20058;-68
2023/10/02 04:37:19;;;;;;;22.65;14.07;;;16.30;99.90;;;;;;5134665;27;20118;-68
2023/10/02 04:42:29;;;;;;;22.48;13.60;;;16.20;99.90;;;;;;5132209;27;20047;-68
2023/10/02 04:44:58;;;;;;;20.45;13.48;;;16.20;99.90;;;;;;5104327;27;20047;-68
2023/10/02 04:47:26;;;;;;;18.25;13.18;;;16.20;99.90;;;;;;5098698;28;20036;-68
2023/10/02 04:52:57;;;;;;;21.23;12.68;;;16.20;99.90;;;;;;5101248;28;20050;-68
2023/10/02 04:55:41;;;;;;;19.45;13.50;;;16.20;99.90;;;;;;5101126;28;20108;-68
2023/10/02 04:58:14;;;;;;;17.27;12.00;;;16.20;99.90;;;;;;5134945;27;20367;-68
2023/10/02 05:03:34;;;;;;;19.10;12.55;;;16.10;99.90;;;;;;5096849;28;20056;-68
2023/10/02 05:06:02;;;;;;;18.08;12.68;;;16.00;99.90;;;;;;5099810;28;20050;-68
2023/10/02 05:08:37;;;;;;;20.67;13.80;;;16.00;99.90;;;;;;5096719;28;20051;-68
2023/10/02 05:11:07;;;;;;;19.58;13.35;;;16.10;99.90;;;;;;5133225;27;20504;-68
2023/10/02 05:13:53;;;;;;;22.38;14.13;;;16.10;99.90;;;;;;5104187;28;20042;-68
2023/10/02 05:16:27;;;;;;;19.85;13.20;;;16.10;99.90;;;;;;5105266;28;20040;-68
2023/10/02 05:18:53;;;;;;;19.25;13.25;;;16.00;99.90;;;;;;5098579;28;20265;-68
2023/10/02 05:21:19;;;;;;;22.77;13.50;;;16.00;99.90;;;;;;5100700;28;20035;-68
2023/10/02 05:24:00;;;;;;;21.10;12.52;;;16.00;99.90;;;;;;5102336;28;20059;-68
2023/10/02 05:26:43;;;;;;;22.20;14.00;;;16.00;99.90;;;;;;5100532;28;20039;-68
2023/10/02 05:32:15;;;;;;;20.10;13.35;;;16.00;99.90;;;;;;5133732;27;20059;-68
2023/10/02 05:34:58;;;;;;;19.67;12.75;;;16.00;99.90;;;;;;5132327;27;20055;-67
2023/10/02 05:37:30;;;;;;;19.27;13.43;;;16.00;99.90;;;;;;5102847;28;20035;-67
2023/10/02 05:45:39;;;;;;;22.23;13.50;;;15.90;99.90;;;;;;5104612;28;20042;-68
2023/10/02 05:48:14;;;;;;;19.13;12.73;;;15.90;99.90;;;;;;5105432;28;20036;-68
2023/10/02 05:50:52;;;;;;;;;;;15.80;99.90;;;;;;5101991;28;20047;-68
2023/10/02 05:53:19;;;;;;;21.77;13.70;;;15.90;99.90;;;;;;5134266;27;19915;-68
2023/10/02 05:55:56;;;;;;;19.98;13.55;;;15.80;99.90;;;;;;5129928;27;20040;-68
2023/10/02 05:58:31;;;;;;;18.85;12.43;;;15.90;99.90;;;;;;5101269;28;20047;-68
2023/10/02 06:01:02;;;;;;;21.70;13.30;;;15.90;99.90;;;;;;5102110;28;20068;-68
2023/10/02 06:03:34;;;;;;;17.08;11.65;;;15.90;99.90;;;;;;5103781;28;20073;-68
2023/10/02 06:06:23;;;;;;;20.17;12.68;;;15.90;99.90;;;;;;5131254;27;20541;-68
2023/10/02 06:08:49;;;;;;;31.25;14.27;;;15.90;99.90;;;;;;5099537;28;20059;-69
2023/10/02 06:11:31;;;;;;;21.73;13.85;;;16.00;99.90;;;;;;5131796;27;20040;-69
2023/10/02 06:14:12;;;;;;;22.30;14.15;;;16.10;99.90;;;;;;5099976;28;20044;-68
2023/10/02 06:16:42;;;;;;;20.75;12.10;;;16.10;99.90;;;;;;5131580;27;20366;-69
2023/10/02 06:19:14;;;;;;;21.10;12.43;;;16.20;99.90;;;;;;5129852;27;20439;-68
2023/10/02 06:21:47;;;;;;;20.20;13.02;;;16.30;99.90;;;;;;5098846;28;20051;-68
2023/10/02 06:24:17;;;;;;;21.00;12.07;;;16.50;99.90;;;;;;5138357;27;20054;-68
2023/10/02 06:26:58;;;;;;;17.35;12.48;;;16.70;99.90;;;;;;5104328;28;20124;-68
2023/10/02 06:29:29;;;;;;;19.02;12.30;;;16.70;99.90;;;;;;5103013;28;20124;-68
2023/10/02 06:31:58;;;;;;;17.88;12.43;;;16.70;99.90;;;;;;5136474;27;20054;-69
2023/10/02 06:34:39;;;;;;;18.40;12.40;;;16.70;99.90;;;;;;5135232;27;20086;-68
2023/10/02 06:37:11;;;;;;;17.75;12.25;;;16.70;99.90;;;;;;5105617;28;20036;-68
2023/10/02 06:39:46;;;;;;;17.73;11.90;;;16.70;99.90;;;;;;5105781;28;20425;-68
2023/10/02 06:42:17;;;;;;;22.85;13.60;;;16.70;99.90;;;;;;5137943;27;20092;-68
2023/10/02 06:44:52;;;;;;;17.58;13.18;;;16.70;99.90;;;;;;5104437;27;20043;-68
2023/10/02 06:47:24;;;;;;;18.40;12.32;;;16.60;99.90;;;;;;5104719;27;20089;-69
2023/10/02 06:50:02;;;;;;;19.02;12.73;;;16.60;99.90;;;;;;5107436;28;20028;-69
2023/10/02 06:52:32;;;;;;;16.92;12.68;;;16.70;99.90;;;;;;5140253;27;20046;-68
2023/10/02 06:55:00;;;;;;;20.38;12.98;;;16.60;99.90;;;;;;5140710;27;20040;-68
2023/10/02 06:57:25;;;;;;;17.92;12.63;;;16.60;99.90;;;;;;5138918;27;20457;-68
2023/10/02 06:59:52;;;;;;;19.23;12.93;;;16.70;99.90;;;;;;5139167;27;20044;-68
2023/10/02 07:02:21;;;;;;;25.92;12.48;;;16.70;99.90;;;;;;5105327;28;20046;-68
2023/10/02 07:04:48;;;;;;;18.67;12.98;;;16.80;99.90;;;;;;5135505;27;20036;-68
2023/10/02 07:07:29;;;;;;;18.45;11.68;;;16.80;99.90;;;;;;5100259;28;20547;-68
2023/10/02 07:10:08;;;;;;;18.80;12.60;;;16.90;99.90;;;;;;5103409;28;20039;-68
2023/10/02 07:12:40;;;;;;;22.63;12.30;;;16.90;99.90;;;;;;5105493;28;20054;-68
2023/10/02 07:15:10;;;;;;;19.85;12.55;;;17.00;99.90;;;;;;5104949;28;20039;-68
2023/10/02 07:17:47;;;;;;;17.23;12.00;;;17.00;99.90;;;;;;5105762;28;20545;-68
2023/10/02 07:20:20;;;;;;;17.95;12.07;;;17.10;99.90;;;;;;5133096;27;20065;-68
2023/10/02 07:22:47;;;;;;;17.83;13.25;;;17.10;99.90;;;;;;5105484;27;20489;-68
2023/10/02 07:25:20;;;;;;;19.55;13.00;;;17.10;99.90;;;;;;5105981;27;20117;-68
2023/10/02 07:27:48;;;;;;;20.83;12.07;;;17.10;99.90;;;;;;5103314;27;20040;-68
2023/10/02 07:30:24;;;;;;;21.48;13.02;;;17.20;99.90;;;;;;5103493;27;20059;-68
2023/10/02 07:32:53;;;;;;;19.52;12.20;;;17.30;99.90;;;;;;5100413;28;20052;-67
2023/10/02 07:35:22;;;;;;;19.95;13.30;;;17.40;99.90;;;;;;5102781;27;20055;-67
2023/10/02 07:37:59;;;;;;;19.92;12.25;;;17.30;99.90;;;;;;5103605;27;20047;-67
2023/10/02 07:40:48;;;;;;;21.95;13.05;;;17.40;99.90;;;;;;5103469;27;20043;-69
2023/10/02 07:43:20;;;;;;;18.35;11.95;;;17.50;99.90;;;;;;5117092;27;20047;-67
2023/10/02 07:46:02;;;;;;;19.63;13.20;;;17.60;99.90;;;;;;5101506;28;20048;-67
2023/10/02 07:48:33;;;;;;;19.92;13.20;;;17.70;99.90;;;;;;5109894;27;20035;-67
2023/10/02 07:51:03;;;;;;;20.80;13.48;;;17.70;99.90;;;;;;5101114;27;20485;-67
2023/10/02 07:53:41;;;;;;;18.50;12.68;;;17.80;99.90;;;;;;5102164;27;20075;-67
2023/10/02 07:56:11;;;;;;;18.20;12.93;;;17.90;99.90;;;;;;5100666;28;20104;-67
2023/10/02 07:58:37;;;;;;;18.13;12.15;;;18.00;99.90;;;;;;5099650;27;20043;-67
2023/10/02 08:01:11;;;;;;;18.08;13.20;;;18.00;99.90;;;;;;5099551;27;20568;-67
2023/10/02 08:03:43;;;;;;;19.30;13.20;;;18.10;99.90;;;;;;5103177;28;20040;-67
2023/10/02 08:06:21;;;;;;;19.92;13.23;;;18.20;99.90;;;;;;5102413;27;20055;-71
2023/10/02 08:09:24;;;;;;;20.10;12.43;;;18.20;99.90;;;;;;5103487;27;20031;-67
2023/10/02 08:11:34;;;;;;;20.35;12.60;;;18.30;99.90;;;;;;5102452;28;20449;-67
2023/10/02 08:14:01;;;;;;;21.60;14.80;;;18.30;99.90;;;;;;5104882;27;20118;-67
2023/10/02 08:16:27;;;;;;;21.17;13.60;;;18.40;99.90;;;;;;5133687;27;20469;-67
2023/10/02 08:19:08;;;;;;;19.77;13.85;;;18.40;99.90;;;;;;5103476;27;20151;-67
2023/10/02 08:21:35;;;;;;;21.05;12.40;;;18.50;99.90;;;;;;5104127;27;20122;-67
2023/10/02 08:24:05;;;;;;;25.50;13.43;;;18.60;99.90;;;;;;5135059;27;20097;-67
2023/10/02 08:26:44;;;;;;;22.95;14.25;;;18.70;99.90;;;;;;5135507;27;20762;-67
2023/10/02 08:29:13;;;;;;;22.02;14.00;;;18.70;99.90;;;;;;5107570;27;20039;-67
2023/10/02 08:31:49;;;;;;;20.90;13.93;;;18.80;99.90;;;;;;5103211;28;20134;-67
2023/10/02 08:34:19;;;;;;;;;;;18.90;99.90;;;;;;5107785;27;20112;-67
2023/10/02 08:36:46;;;;;;;25.13;14.00;;;19.00;99.90;;;;;;5106766;27;20369;-67
2023/10/02 08:39:11;;;;;;;25.55;15.50;;;19.10;99.90;;;;;;5104683;27;20047;-67
2023/10/02 08:41:50;;;;;;;20.83;13.98;;;19.10;99.90;;;;;;5102562;28;20047;-67
2023/10/02 08:44:17;;;;;;;25.65;14.98;;;19.20;99.90;;;;;;5106505;27;20055;-67
2023/10/02 08:46:43;;;;;;;24.65;15.18;;;19.20;99.90;;;;;;5101460;27;20043;-67
2023/10/02 08:49:16;;;;;;;24.55;15.20;;;19.20;99.90;;;;;;5101829;27;20153;-67
2023/10/02 08:51:48;;;;;;;21.48;15.65;;;19.30;99.90;;;;;;5103073;28;20051;-67
2023/10/02 08:54:17;;;;;;;23.02;15.00;;;19.40;99.90;;;;;;5098034;28;20047;-67
2023/10/02 08:56:48;;;;;;;23.85;15.88;;;19.40;99.90;;;;;;5102619;28;20051;-67
2023/10/02 08:59:26;;;;;;;23.25;14.40;;;19.50;99.90;;;;;;5099286;28;20132;-67
2023/10/02 09:02:16;;;;;;;26.95;15.07;;;19.50;99.90;;;;;;5128908;27;20058;-66
2023/10/02 09:04:57;;;;;;;27.00;15.23;;;19.60;99.90;;;;;;5134500;27;20058;-67
2023/10/02 09:08:00;;;;;;;21.65;14.93;;;19.70;99.90;;;;;;5100358;28;20105;-67
2023/10/02 09:10:26;;;;;;;25.40;15.45;;;19.70;99.90;;;;;;5102567;28;20040;-67
2023/10/02 09:13:16;;;;;;;24.02;15.77;;;19.70;99.90;;;;;;5100827;28;20040;-67
2023/10/02 09:15:46;;;;;;;23.35;15.68;;;19.80;99.90;;;;;;5103518;28;20035;-67
2023/10/02 09:18:34;;;;;;;29.08;16.92;;;19.90;99.90;;;;;;5102832;28;20036;-67
2023/10/02 09:21:13;;;;;;;22.30;16.05;;;19.80;99.90;;;;;;5100475;28;20383;-67
2023/10/02 09:23:51;;;;;;;26.60;17.25;;;19.90;99.90;;;;;;5100521;28;20381;-67
2023/10/02 09:26:17;;;;;;;24.55;16.25;;;20.00;99.90;;;;;;5103829;28;20088;-67
2023/10/02 09:28:47;;;;;;;24.30;15.88;;;20.10;99.90;;;;;;5100939;28;20503;-67
2023/10/02 09:31:14;;;;;;;24.55;17.00;;;20.10;99.90;;;;;;5100395;28;21307;-67
2023/10/02 09:33:45;;;;;;;29.73;18.13;;;20.20;99.90;;;;;;5102042;28;20051;-67
2023/10/02 09:36:19;;;;;;;31.05;18.08;;;20.40;99.90;;;;;;5101242;28;20129;-66
2023/10/02 09:38:46;;;;;;;36.70;19.65;;;20.50;99.90;;;;;;5101088;28;20048;-66
2023/10/02 09:41:16;;;;;;;27.42;18.42;;;20.60;99.90;;;;;;5099095;28;20054;-67
2023/10/02 09:43:42;;;;;;;34.88;19.15;;;20.70;99.90;;;;;;5103631;28;20644;-67
2023/10/02 09:46:15;;;;;;;34.90;20.20;;;20.70;99.90;;;;;;5100144;28;20206;-67
2023/10/02 09:49:03;;;;;;;32.00;20.35;;;20.80;99.90;;;;;;5080532;28;20040;-66
2023/10/02 09:52:07;;;;;;;30.02;19.75;;;20.70;99.90;;;;;;5099841;28;20035;-66
2023/10/02 09:54:40;;;;;;;37.35;19.92;;;20.60;99.90;;;;;;5100945;28;20253;-67
2023/10/02 09:57:24;;;;;;;33.88;21.35;;;20.50;99.90;;;;;;5103167;28;20044;-67
2023/10/02 09:59:54;;;;;;;31.48;20.30;;;20.40;99.90;;;;;;5105532;28;20424;-66
2023/10/02 10:08:18;;;;;;;29.98;19.70;;;20.50;99.90;;;;;;5101482;28;20054;-67
2023/10/02 10:10:57;;;;;;;30.48;19.92;;;20.50;99.90;;;;;;5100676;28;20039;-66
2023/10/02 10:13:50;;;;;;;33.13;21.98;;;20.60;99.90;;;;;;5136119;27;20040;-67
2023/10/02 10:16:19;;;;;;;32.38;21.25;;;20.60;99.90;;;;;;5105018;27;20118;-66
2023/10/02 10:19:26;;;;;;;35.97;20.35;;;20.50;99.90;;;;;;5115502;27;20047;-69
2023/10/02 10:21:56;;;;;;;29.70;21.10;;;20.60;99.90;;;;;;5104330;28;20059;-67
2023/10/02 10:24:51;;;;;;;35.45;22.08;;;20.60;99.90;;;;;;5104825;28;20093;-67
2023/10/02 10:27:38;;;;;;;33.95;20.73;;;20.50;99.90;;;;;;5133124;27;20130;-67
2023/10/02 10:30:28;;;;;;;33.00;21.13;;;20.50;99.90;;;;;;5101738;28;20051;-67
2023/10/02 10:35:41;;;;;;;33.85;21.27;;;20.50;99.90;;;;;;5103123;28;20055;-66
2023/10/02 10:38:25;;;;;;;29.70;20.38;;;20.50;99.90;;;;;;5138292;27;20501;-66
2023/10/02 10:40:55;;;;;;;26.70;19.55;;;20.50;99.90;;;;;;5117474;27;20046;-67
2023/10/02 10:43:43;;;;;;;30.77;19.77;;;20.50;99.90;;;;;;5103193;28;20055;-67
2023/10/02 10:46:18;;;;;;;30.75;19.35;;;20.70;99.90;;;;;;5100814;27;20039;-67
2023/10/02 10:48:53;;;;;;;33.42;22.77;;;20.80;99.90;;;;;;5103653;27;20396;-67
2023/10/02 10:51:21;;;;;;;37.22;22.25;;;20.90;99.90;;;;;;5103767;28;20489;-67
2023/10/02 10:53:52;;;;;;;28.08;19.63;;;21.00;99.90;;;;;;5136790;27;20047;-67
2023/10/02 10:56:19;;;;;;;27.48;18.33;;;21.10;99.90;;;;;;5102958;28;20481;-67
2023/10/02 10:58:46;;;;;;;29.85;20.02;;;21.10;99.90;;;;;;5102066;27;20390;-66
2023/10/02 11:01:21;;;;;;;31.63;20.33;;;21.10;99.90;;;;;;5135649;27;20065;-67
2023/10/02 11:03:54;;;;;;;31.77;21.13;;;21.10;99.90;;;;;;5105476;27;20047;-67
2023/10/02 11:06:23;;;;;;;30.23;20.27;;;21.10;99.90;;;;;;5106551;27;20040;-67
2023/10/02 11:09:12;;;;;;;32.75;21.48;;;21.10;99.90;;;;;;5137547;27;20032;-67
2023/10/02 11:11:50;;;;;;;30.15;20.60;;;21.00;99.90;;;;;;5134279;27;20031;-67
2023/10/02 11:14:36;;;;;;;31.73;20.75;;;21.00;99.90;;;;;;5101855;28;20035;-67
2023/10/02 11:17:04;;;;;;;33.58;19.42;;;21.00;99.90;;;;;;5101689;28;20485;-67
2023/10/02 11:22:19;;;;;;;33.38;20.75;;;21.00;99.90;;;;;;5104935;28;20634;-66
2023/10/02 11:24:54;;;;;;;28.58;19.52;;;21.00;99.90;;;;;;5102717;27;20085;-67
2023/10/02 11:27:24;;;;;;;33.20;19.63;;;21.20;99.90;;;;;;5134508;27;20035;-67
2023/10/02 11:30:02;;;;;;;29.02;19.20;;;21.20;99.90;;;;;;5102721;27;20059;-67
2023/10/02 11:32:54;;;;;;;32.55;19.60;;;21.40;99.90;;;;;;5101856;28;20039;-67
2023/10/02 11:35:29;;;;;;;28.13;19.98;;;21.40;99.90;;;;;;5104891;27;20039;-67
2023/10/02 11:37:56;;;;;;;29.60;19.25;;;21.40;99.90;;;;;;5105607;27;20073;-67
2023/10/02 11:40:25;;;;;;;26.52;18.48;;;21.50;99.90;;;;;;5103241;27;20048;-67
2023/10/02 11:42:58;;;;;;;28.92;20.25;;;21.60;99.90;;;;;;5101653;28;20101;-67
2023/10/02 11:45:23;;;;;;;33.67;19.10;;;21.70;99.90;;;;;;5132591;27;20040;-67
2023/10/02 11:47:49;;;;;;;31.35;20.00;;;21.70;99.90;;;;;;5133803;27;20099;-66
2023/10/02 11:50:16;;;;;;;30.65;20.60;;;21.70;99.90;;;;;;5103696;28;20046;-67
2023/10/02 11:52:41;;;;;;;32.28;19.50;;;21.80;99.90;;;;;;5106190;27;20039;-67
2023/10/02 11:55:07;;;;;;;30.33;19.73;;;21.70;99.90;;;;;;5105745;27;20036;-67
2023/10/02 11:57:33;;;;;;;28.02;18.90;;;21.70;99.90;;;;;;5104313;27;20040;-67
2023/10/02 12:00:08;;;;;;;27.70;20.27;;;21.80;99.90;;;;;;5102425;28;20111;-67
2023/10/02 12:02:33;;;;;;;29.67;20.35;;;21.90;99.90;;;;;;5102355;28;20122;-67
2023/10/02 12:04:59;;;;;;;30.58;20.45;;;21.90;99.90;;;;;;5103569;28;20122;-67
2023/10/02 12:07:24;;;;;;;26.85;19.17;;;22.00;99.90;;;;;;5104450;28;20043;-67
2023/10/02 12:09:52;;;;;;;28.85;20.15;;;22.00;99.90;;;;;;5102197;28;20059;-67
2023/10/02 12:12:17;;;;;;;29.08;19.60;;;21.90;99.90;;;;;;5132728;27;20035;-67
2023/10/02 12:14:43;;;;;;;35.85;20.77;;;22.00;99.90;;;;;;5104089;28;20101;-67
2023/10/02 12:17:11;;;;;;;26.83;19.48;;;21.90;99.90;;;;;;5136222;27;20040;-67
2023/10/02 12:19:39;;;;;;;28.73;18.75;;;21.90;99.90;;;;;;5103428;28;20096;-67
2023/10/02 12:22:06;;;;;;;29.40;19.38;;;21.90;99.90;;;;;;5104049;28;20040;-67
2023/10/02 12:24:32;;;;;;;31.73;21.27;;;21.90;99.90;;;;;;5101938;28;20065;-67
2023/10/02 12:26:58;;;;;;;26.92;18.70;;;21.90;99.90;;;;;;5102826;28;20028;-67
2023/10/02 12:29:27;;;;;;;27.75;19.00;;;22.00;99.90;;;;;;5101678;27;20062;-67
2023/10/02 12:31:53;;;;;;;30.85;20.50;;;22.00;99.90;;;;;;5101926;28;20032;-67
2023/10/02 12:34:19;;;;;;;28.55;19.63;;;22.00;99.90;;;;;;5103369;28;20054;-67
2023/10/02 12:36:45;;;;;;;26.98;18.15;;;22.00;99.90;;;;;;5103004;28;20046;-67
2023/10/02 12:39:13;;;;;;;24.63;17.48;;;22.00;99.90;;;;;;5106364;28;20028;-67
2023/10/02 12:41:43;;;;;;;25.00;18.35;;;21.90;99.90;;;;;;5100726;28;20039;-67
2023/10/02 12:44:09;;;;;;;30.63;18.85;;;22.00;99.90;;;;;;5106351;28;20062;-67
2023/10/02 12:46:50;;;;;;;29.65;19.00;;;22.00;99.90;;;;;;5102512;28;20481;-67
2023/10/02 12:49:19;;;;;;;27.83;16.35;;;22.00;99.90;;;;;;5104143;28;20103;-67
2023/10/02 12:51:45;;;;;;;25.98;16.92;;;22.10;99.90;;;;;;5131987;27;20101;-67
2023/10/02 12:54:11;;;;;;;23.73;16.17;;;22.10;99.90;;;;;;5090134;28;20413;-67
2023/10/02 12:56:39;;;;;;;25.23;15.35;;;22.10;99.90;;;;;;5102509;28;20036;-67
2023/10/02 12:59:08;;;;;;;23.83;15.13;;;22.20;99.90;;;;;;5103380;28;20039;-67
2023/10/02 13:01:34;;;;;;;22.35;15.02;;;22.10;99.90;;;;;;5101829;28;20040;-67
2023/10/02 13:03:59;;;;;;;25.70;14.30;;;22.10;99.90;;;;;;5102755;28;20046;-67
2023/10/02 13:06:27;;;;;;;22.60;13.88;;;22.10;99.90;;;;;;5103119;28;20229;-67
2023/10/02 13:08:59;;;;;;;20.67;13.60;;;22.10;99.90;;;;;;5101915;27;20050;-66
2023/10/02 13:11:24;;;;;;;21.75;13.48;;;22.10;99.90;;;;;;5101953;28;20363;-67
2023/10/02 13:13:52;;;;;;;22.00;13.43;;;22.10;99.90;;;;;;5105407;28;20054;-67
2023/10/02 13:16:19;;;;;;;23.13;15.23;;;22.10;99.90;;;;;;5130263;27;20509;-67
2023/10/02 13:18:46;;;;;;;19.75;13.63;;;22.00;99.90;;;;;;5106306;28;20040;-67
2023/10/02 13:21:19;;;;;;;23.17;13.93;;;22.10;99.90;;;;;;5103284;28;20062;-67
2023/10/02 13:23:46;;;;;;;20.83;13.68;;;22.10;99.90;;;;;;5131957;27;20079;-67
2023/10/02 13:26:16;;;;;;;18.60;12.68;;;22.20;99.90;;;;;;5133639;27;20039;-67
2023/10/02 13:28:48;;;;;;;23.50;12.98;;;22.20;99.90;;;;;;5099716;28;20071;-67
2023/10/02 13:31:19;;;;;;;23.95;13.07;;;22.20;99.90;;;;;;5134033;27;20923;-67
2023/10/02 13:33:51;;;;;;;18.13;11.65;;;22.20;99.90;;;;;;5139586;27;20054;-67
2023/10/02 13:36:22;;;;;;;18.25;12.55;;;22.20;99.90;;;;;;5137300;27;20043;-67
2023/10/02 13:38:57;;;;;;;23.15;12.60;;;22.30;99.90;;;;;;5104835;27;20476;-67